Articles

IAA

Share

Share

Trim Flying Club goes to the Aran Islands

Learn to fly at Trim Flying Club

Rainfall Radar Now

Atlantic Charts Pressure - Today

Atlantic Charts Rainfall - Today

 
 

Atlantic Charts Pressure - Tomorrow

Sunrise Sunset

Click for Dublin, Ireland Forecast

Aviation WX Dublin EIDW

[source: ADDS]
METAR
EIDW 220530Z 28008KT 9999 FEW014 BKN050 07/07 Q1012 NOSIG =
TAF
TAF EIDW 220500Z 2206/2306 30008KT 9999 FEW018 SCT030 BECMG 2206/2209 31013KT TEMPO 2212/2221 FEW018CB BKN020 BECMG 2222/2301 27008KT PROB30 TEMPO 2303/2306 3000 BR SCT005 =